createdAt,value
2022-11-23T00:01:37.273Z,4.47
2022-11-23T00:04:08.715Z,4.53
2022-11-23T00:06:35.733Z,4.13
2022-11-23T00:09:02.110Z,4.30
2022-11-23T00:11:28.979Z,4.30
2022-11-23T00:13:55.718Z,3.88
2022-11-23T00:16:25.040Z,4.50
2022-11-23T00:18:55.637Z,4.35
2022-11-23T00:21:22.846Z,4.70
2022-11-23T00:23:49.843Z,4.82
2022-11-23T00:26:17.081Z,4.57
2022-11-23T00:28:43.845Z,4.18
2022-11-23T00:31:12.258Z,4.22
2022-11-23T00:33:38.640Z,4.50
2022-11-23T00:36:13.514Z,4.18
2022-11-23T00:38:40.743Z,4.60
2022-11-23T00:41:16.098Z,4.85
2022-11-23T00:43:42.682Z,4.20
2022-11-23T00:46:17.264Z,4.30
2022-11-23T00:48:44.573Z,4.28
2022-11-23T00:51:16.080Z,4.50
2022-11-23T00:53:42.758Z,4.25
2022-11-23T00:56:09.821Z,4.43
2022-11-23T00:58:38.679Z,4.50
2022-11-23T01:01:05.121Z,4.00
2022-11-23T01:03:32.142Z,3.67
2022-11-23T01:06:06.356Z,4.35
2022-11-23T01:08:32.791Z,3.67
2022-11-23T01:11:01.279Z,4.35
2022-11-23T01:13:28.052Z,4.28
2022-11-23T01:15:54.517Z,3.97
2022-11-23T01:18:21.099Z,3.90
2022-11-23T01:20:47.468Z,4.63
2022-11-23T01:23:13.953Z,3.25
2022-11-23T01:25:40.324Z,3.75
2022-11-23T01:28:06.679Z,3.42
2022-11-23T01:30:34.562Z,3.70
2022-11-23T01:33:00.998Z,3.80
2022-11-23T01:35:28.385Z,3.90
2022-11-23T01:37:54.755Z,3.83
2022-11-23T01:40:21.160Z,3.55
2022-11-23T01:42:51.819Z,3.60
2022-11-23T01:45:32.468Z,3.20
2022-11-23T01:47:58.820Z,3.90
2022-11-23T01:50:25.682Z,3.85
2022-11-23T01:52:52.353Z,3.42
2022-11-23T01:55:20.957Z,3.50
2022-11-23T01:57:49.028Z,3.72
2022-11-23T02:00:15.746Z,3.58
2022-11-23T02:02:46.135Z,3.78
2022-11-23T02:05:14.880Z,3.58
2022-11-23T02:07:41.816Z,3.78
2022-11-23T02:10:08.536Z,3.05
2022-11-23T02:12:35.198Z,3.75
2022-11-23T02:15:01.843Z,3.40
2022-11-23T02:17:28.223Z,3.30
2022-11-23T02:20:00.245Z,3.33
2022-11-23T02:22:33.717Z,3.40
2022-11-23T02:25:01.086Z,3.20
2022-11-23T02:27:27.605Z,3.80
2022-11-23T02:29:54.576Z,3.65
2022-11-23T02:32:23.424Z,3.40
2022-11-23T02:34:50.304Z,3.45
2022-11-23T02:37:17.149Z,3.22
2022-11-23T02:39:48.487Z,3.15
2022-11-23T02:42:14.834Z,3.63
2022-11-23T02:45:00.701Z,3.58
2022-11-23T02:47:27.069Z,4.13
2022-11-23T02:49:53.595Z,3.72
2022-11-23T02:52:19.954Z,3.47
2022-11-23T02:54:46.595Z,4.15
2022-11-23T02:57:13.697Z,3.58
2022-11-23T02:59:40.066Z,3.08
2022-11-23T03:02:06.802Z,3.80
2022-11-23T03:04:33.322Z,3.88
2022-11-23T03:07:01.368Z,3.75
2022-11-23T03:09:28.168Z,3.90
2022-11-23T03:11:54.526Z,3.83
2022-11-23T03:14:21.360Z,3.60
2022-11-23T03:16:47.705Z,4.03
2022-11-23T03:19:14.133Z,3.50
2022-11-23T03:21:40.519Z,3.08
2022-11-23T03:24:06.995Z,4.15
2022-11-23T03:26:33.406Z,3.15
2022-11-23T03:28:59.759Z,3.40
2022-11-23T03:31:26.317Z,4.30
2022-11-23T03:33:52.656Z,3.38
2022-11-23T03:36:19.058Z,3.47
2022-11-23T03:38:45.431Z,3.42
2022-11-23T03:41:11.809Z,3.33
2022-11-23T03:43:40.073Z,3.60
2022-11-23T03:46:06.500Z,4.10
2022-11-23T03:48:32.852Z,3.30
2022-11-23T03:50:59.350Z,3.20
2022-11-23T03:53:25.718Z,3.47
2022-11-23T03:55:54.799Z,4.03
2022-11-23T03:58:21.272Z,3.15
2022-11-23T04:00:47.629Z,3.10
2022-11-23T04:03:13.988Z,3.30
2022-11-23T04:05:40.348Z,3.17
2022-11-23T04:08:06.701Z,3.30
2022-11-23T04:10:33.018Z,3.78
2022-11-23T04:12:59.394Z,3.53
2022-11-23T04:15:25.733Z,3.72
2022-11-23T04:17:52.131Z,4.03
2022-11-23T04:20:18.455Z,3.72
2022-11-23T04:22:44.857Z,3.50
2022-11-23T04:25:11.294Z,3.80
2022-11-23T04:27:37.650Z,3.70
2022-11-23T04:30:04.482Z,3.78
2022-11-23T04:32:30.836Z,3.40
2022-11-23T04:34:57.225Z,3.55
2022-11-23T04:37:23.562Z,3.40
2022-11-23T04:39:49.928Z,4.05
2022-11-23T04:42:16.290Z,3.65
2022-11-23T04:44:42.662Z,4.30
2022-11-23T04:47:10.315Z,4.22
2022-11-23T04:49:36.719Z,4.07
2022-11-23T04:52:03.464Z,3.83
2022-11-23T04:54:29.783Z,3.50
2022-11-23T04:56:56.632Z,3.97
2022-11-23T04:59:23.116Z,3.60
2022-11-23T05:01:52.069Z,4.07
2022-11-23T05:04:19.359Z,4.28
2022-11-23T05:06:45.937Z,3.42
2022-11-23T05:09:12.836Z,4.57
2022-11-23T05:11:39.272Z,3.50
2022-11-23T05:14:05.658Z,3.88
2022-11-23T05:16:32.090Z,3.58
2022-11-23T05:18:58.527Z,4.03
2022-11-23T05:21:24.919Z,3.78
2022-11-23T05:23:51.375Z,3.95
2022-11-23T05:26:17.811Z,4.10
2022-11-23T05:28:44.360Z,3.35
2022-11-23T05:31:11.083Z,3.58
2022-11-23T05:33:37.681Z,4.40
2022-11-23T05:36:04.338Z,3.75
2022-11-23T05:38:30.837Z,3.28
2022-11-23T05:40:57.212Z,4.00
2022-11-23T05:43:23.675Z,3.50
2022-11-23T05:45:50.082Z,3.35
2022-11-23T05:48:16.794Z,3.90
2022-11-23T05:50:43.189Z,3.65
2022-11-23T05:53:09.973Z,3.80
2022-11-23T05:55:36.313Z,4.32
2022-11-23T05:58:03.753Z,3.85
2022-11-23T06:00:30.223Z,4.10
2022-11-23T06:03:02.972Z,3.50
2022-11-23T06:05:29.832Z,3.67
2022-11-23T06:07:56.512Z,3.63
2022-11-23T06:10:23.186Z,4.07
2022-11-23T06:12:52.893Z,4.03
2022-11-23T06:15:19.499Z,3.63
2022-11-23T06:17:45.993Z,3.42
2022-11-23T06:20:12.336Z,3.22
2022-11-23T06:22:38.650Z,4.10
2022-11-23T06:25:05.219Z,3.35
2022-11-23T06:27:31.869Z,3.85
2022-11-23T06:29:58.181Z,3.22
2022-11-23T06:32:24.546Z,3.55
2022-11-23T06:34:50.898Z,3.80
2022-11-23T06:37:17.356Z,4.32
2022-11-23T06:39:43.706Z,4.07
2022-11-23T06:42:37.346Z,4.40
2022-11-23T06:44:56.448Z,4.30
2022-11-23T06:47:26.316Z,3.50
2022-11-23T06:49:53.040Z,3.85
2022-11-23T06:52:19.386Z,3.40
2022-11-23T06:54:46.182Z,3.30
2022-11-23T06:57:12.555Z,3.50
2022-11-23T06:59:43.341Z,3.22
2022-11-23T07:02:11.597Z,3.10
2022-11-23T07:04:38.034Z,3.70
2022-11-23T07:07:04.567Z,3.38
2022-11-23T07:09:31.307Z,3.42
2022-11-23T07:11:57.857Z,3.50
2022-11-23T07:14:24.302Z,3.60
2022-11-23T07:16:51.160Z,3.28
2022-11-23T07:19:17.505Z,3.55
2022-11-23T07:21:45.289Z,3.60
2022-11-23T07:24:11.665Z,3.33
2022-11-23T07:26:38.003Z,3.97
2022-11-23T07:29:04.419Z,3.28
2022-11-23T07:31:31.016Z,3.55
2022-11-23T07:33:57.333Z,3.67
2022-11-23T07:36:23.703Z,3.53
2022-11-23T07:38:50.121Z,3.28
2022-11-23T07:41:16.460Z,3.40
2022-11-23T07:43:42.854Z,3.50
2022-11-23T07:46:09.227Z,3.33
2022-11-23T07:48:36.705Z,3.45
2022-11-23T07:51:03.569Z,3.78
2022-11-23T07:53:30.010Z,4.07
2022-11-23T07:55:59.467Z,4.03
2022-11-23T07:58:25.914Z,3.70
2022-11-23T08:00:52.430Z,3.80
2022-11-23T08:03:27.652Z,3.10
2022-11-23T08:05:54.744Z,3.75
2022-11-23T08:08:21.128Z,3.65
2022-11-23T08:10:52.860Z,4.10
2022-11-23T08:13:20.206Z,3.88
2022-11-23T08:15:53.410Z,3.97
2022-11-23T08:18:20.636Z,3.28
2022-11-23T08:20:47.021Z,4.70
2022-11-23T08:23:13.432Z,3.35
2022-11-23T08:25:39.784Z,3.63
2022-11-23T08:28:06.142Z,3.78
2022-11-23T08:30:33.942Z,3.63
2022-11-23T08:33:04.427Z,3.70
2022-11-23T08:35:30.823Z,3.92
2022-11-23T08:37:57.213Z,3.83
2022-11-23T08:40:25.579Z,3.80
2022-11-23T08:42:52.244Z,4.82
2022-11-23T08:45:18.643Z,3.83
2022-11-23T08:47:45.027Z,4.75
2022-11-23T08:50:11.401Z,4.00
2022-11-23T08:52:37.774Z,3.65
2022-11-23T08:55:04.752Z,4.13
2022-11-23T08:57:31.156Z,3.97
2022-11-23T08:59:57.645Z,4.15
2022-11-23T09:02:24.025Z,4.40
2022-11-23T09:04:50.371Z,4.25
2022-11-23T09:07:16.801Z,4.05
2022-11-23T09:09:43.210Z,3.97
2022-11-23T09:12:09.621Z,4.05
2022-11-23T09:14:35.993Z,3.38
2022-11-23T09:17:02.675Z,3.53
2022-11-23T09:19:29.264Z,4.15
2022-11-23T09:21:55.681Z,3.15
2022-11-23T09:24:22.569Z,3.45
2022-11-23T09:26:49.054Z,3.28
2022-11-23T09:29:15.497Z,3.70
2022-11-23T09:31:42.303Z,3.83
2022-11-23T09:34:11.745Z,3.42
2022-11-23T09:36:39.174Z,3.28
2022-11-23T09:39:05.642Z,2.92
2022-11-23T09:41:48.740Z,3.42
2022-11-23T09:44:35.803Z,2.78
2022-11-23T09:47:26.053Z,3.67
2022-11-23T09:50:07.451Z,3.40
2022-11-23T09:52:35.261Z,2.97
2022-11-23T09:55:06.706Z,3.03
2022-11-23T09:57:34.444Z,3.25
2022-11-23T10:00:06.830Z,2.83
2022-11-23T10:02:37.044Z,3.42
2022-11-23T10:05:04.008Z,3.53
2022-11-23T10:07:40.013Z,3.47
2022-11-23T10:10:21.554Z,2.70
2022-11-23T10:12:57.939Z,2.78
2022-11-23T10:15:27.390Z,2.85
2022-11-23T10:18:19.290Z,3.15
2022-11-23T10:20:52.834Z,2.50
2022-11-23T10:23:36.507Z,3.00
2022-11-23T10:26:02.812Z,3.33
2022-11-23T10:28:31.616Z,2.85
2022-11-23T10:31:18.599Z,2.90
2022-11-23T10:34:08.766Z,2.83
2022-11-23T10:36:36.162Z,2.53
2022-11-23T10:39:05.376Z,3.10
2022-11-23T10:41:31.937Z,2.85
2022-11-23T10:44:12.501Z,2.72
2022-11-23T10:46:39.910Z,2.35
2022-11-23T10:49:15.629Z,2.85
2022-11-23T10:52:09.215Z,2.47
2022-11-23T10:54:41.343Z,2.38
2022-11-23T10:57:33.028Z,2.20
2022-11-23T11:00:12.912Z,2.63
2022-11-23T11:02:46.974Z,1.98
2022-11-23T11:07:39.565Z,2.28
2022-11-23T11:10:06.531Z,2.92
2022-11-23T11:12:34.478Z,2.47
2022-11-23T11:15:11.327Z,2.80
2022-11-23T11:17:39.531Z,2.90
2022-11-23T11:20:45.024Z,2.47
2022-11-23T11:23:19.853Z,2.00
2022-11-23T11:25:47.282Z,2.47
2022-11-23T11:28:33.000Z,2.65
2022-11-23T11:31:17.786Z,2.45
2022-11-23T11:33:54.255Z,2.35
2022-11-23T11:36:21.801Z,1.98
2022-11-23T11:39:15.124Z,2.45
2022-11-23T11:41:38.297Z,2.40
2022-11-23T11:44:24.624Z,1.98
2022-11-23T11:46:56.527Z,2.05
2022-11-23T11:49:26.518Z,2.40
2022-11-23T11:51:56.918Z,2.45
2022-11-23T11:54:37.270Z,2.38
2022-11-23T11:57:09.688Z,1.88
2022-11-23T11:59:42.759Z,2.20
2022-11-23T12:02:31.535Z,2.17
2022-11-23T12:05:01.244Z,2.25
2022-11-23T12:07:31.051Z,1.75
2022-11-23T12:10:04.357Z,2.08
2022-11-23T12:12:32.195Z,1.90
2022-11-23T12:14:58.624Z,2.00
2022-11-23T12:17:43.750Z,2.35
2022-11-23T12:20:19.524Z,2.22
2022-11-23T12:23:04.438Z,2.10
2022-11-23T12:25:49.246Z,1.85
2022-11-23T12:28:21.363Z,2.42
2022-11-23T12:30:52.796Z,1.73
2022-11-23T12:33:40.236Z,1.80
2022-11-23T12:36:44.432Z,2.03
2022-11-23T12:39:16.674Z,1.95
2022-11-23T12:42:07.363Z,2.15
2022-11-23T12:44:52.244Z,2.47
2022-11-23T12:47:21.719Z,1.90
2022-11-23T12:49:51.909Z,1.90
2022-11-23T12:52:54.720Z,1.88
2022-11-23T12:55:29.060Z,2.17
2022-11-23T12:58:28.413Z,2.00
2022-11-23T13:00:57.595Z,2.08
2022-11-23T13:03:54.786Z,2.05
2022-11-23T13:06:33.069Z,2.20
2022-11-23T13:09:14.987Z,2.33
2022-11-23T13:12:14.554Z,2.38
2022-11-23T13:14:56.161Z,1.88
2022-11-23T13:17:51.437Z,1.77
2022-11-23T13:20:32.905Z,2.20
2022-11-23T13:22:59.569Z,1.90
2022-11-23T13:25:28.071Z,1.83
2022-11-23T13:27:56.655Z,1.92
2022-11-23T13:30:59.636Z,2.00
2022-11-23T13:33:29.539Z,1.90
2022-11-23T13:36:03.797Z,1.88
2022-11-23T13:38:38.239Z,1.95
2022-11-23T13:41:33.356Z,2.03
2022-11-23T13:44:19.580Z,1.85
2022-11-23T13:46:58.813Z,1.73
2022-11-23T13:49:34.254Z,2.33
2022-11-23T13:52:23.418Z,1.48
2022-11-23T13:55:04.025Z,2.13
2022-11-23T13:57:35.264Z,1.98
2022-11-23T14:00:39.186Z,2.40
2022-11-23T14:03:42.861Z,2.03
2022-11-23T14:06:21.728Z,1.70
2022-11-23T14:08:51.420Z,2.00
2022-11-23T14:11:21.322Z,1.70
2022-11-23T14:14:02.965Z,2.20
2022-11-23T14:17:04.790Z,2.03
2022-11-23T14:20:14.018Z,1.80
2022-11-23T14:23:18.058Z,2.13
2022-11-23T14:26:03.641Z,2.28
2022-11-23T14:28:35.617Z,2.15
2022-11-23T14:31:13.705Z,2.25
2022-11-23T14:33:46.233Z,2.17
2022-11-23T14:36:18.450Z,2.03
2022-11-23T14:39:10.081Z,2.00
2022-11-23T14:41:37.043Z,1.83
2022-11-23T14:44:05.354Z,1.98
2022-11-23T14:46:31.685Z,1.88
2022-11-23T14:49:06.934Z,2.03
2022-11-23T14:51:33.971Z,1.92
2022-11-23T14:54:02.411Z,2.08
2022-11-23T14:56:35.299Z,1.90
2022-11-23T14:59:10.616Z,2.38
2022-11-23T15:01:37.401Z,2.38
2022-11-23T15:04:09.495Z,3.50
2022-11-23T15:06:45.346Z,7.60
2022-11-23T15:09:37.145Z,2.78
2022-11-23T15:12:27.802Z,2.55
2022-11-23T15:14:57.211Z,2.00
2022-11-23T15:17:24.328Z,1.98
2022-11-23T15:19:58.615Z,2.58
2022-11-23T15:22:25.457Z,2.85
2022-11-23T15:24:51.920Z,3.30
2022-11-23T15:27:29.942Z,2.60
2022-11-23T15:29:58.195Z,2.35
2022-11-23T15:32:33.883Z,2.30
2022-11-23T15:35:07.372Z,2.55
2022-11-23T15:37:43.319Z,2.30
2022-11-23T15:40:13.095Z,2.50
2022-11-23T15:42:39.851Z,2.97
2022-11-23T15:45:08.314Z,1.88
2022-11-23T15:47:37.962Z,2.10
2022-11-23T15:50:09.253Z,2.10
2022-11-23T15:52:37.905Z,2.20
2022-11-23T15:55:09.899Z,1.65
2022-11-23T15:57:37.165Z,2.03
2022-11-23T16:00:05.495Z,1.75
2022-11-23T16:02:32.140Z,1.92
2022-11-23T16:05:15.319Z,1.67
2022-11-23T16:07:53.371Z,1.70
2022-11-23T16:10:27.796Z,2.22
2022-11-23T16:12:56.324Z,1.60
2022-11-23T16:15:38.174Z,1.92
2022-11-23T16:18:07.318Z,1.90
2022-11-23T16:20:33.788Z,2.40
2022-11-23T16:23:00.504Z,2.17
2022-11-23T16:25:31.931Z,1.85
2022-11-23T16:27:58.273Z,1.50
2022-11-23T16:30:26.709Z,1.75
2022-11-23T16:32:53.226Z,2.17
2022-11-23T16:35:20.788Z,1.80
2022-11-23T16:37:47.479Z,1.85
2022-11-23T16:40:14.472Z,2.15
2022-11-23T16:42:41.359Z,2.00
2022-11-23T16:45:08.510Z,2.03
2022-11-23T16:47:34.878Z,6.30
2022-11-23T16:50:01.373Z,6.72
2022-11-23T16:52:27.830Z,8.27
2022-11-23T16:54:54.402Z,6.55
2022-11-23T16:57:29.691Z,7.90
2022-11-23T16:59:57.039Z,7.72
2022-11-23T17:02:23.497Z,7.57
2022-11-23T17:04:49.934Z,7.15
2022-11-23T17:07:16.882Z,6.00
2022-11-23T17:09:43.365Z,6.63
2022-11-23T17:12:15.173Z,5.50
2022-11-23T17:14:42.539Z,7.63
2022-11-23T17:17:16.590Z,9.38
2022-11-23T17:22:13.834Z,6.00
2022-11-23T17:24:40.833Z,7.45
2022-11-23T17:27:07.159Z,5.78
2022-11-23T17:29:37.722Z,9.13
2022-11-23T17:32:10.703Z,4.90
2022-11-23T17:34:37.102Z,4.03
2022-11-23T17:37:03.466Z,5.18
2022-11-23T17:39:29.976Z,4.75
2022-11-23T17:42:01.592Z,4.60
2022-11-23T17:44:31.115Z,5.03
2022-11-23T17:46:58.680Z,4.55
2022-11-23T17:49:28.121Z,4.95
2022-11-23T17:51:55.743Z,5.13
2022-11-23T17:54:23.125Z,3.30
2022-11-23T17:56:51.458Z,4.35
2022-11-23T17:59:19.097Z,4.15
2022-11-23T18:01:45.742Z,4.20
2022-11-23T18:04:12.190Z,4.63
2022-11-23T18:06:38.820Z,4.18
2022-11-23T18:09:06.457Z,3.83
2022-11-23T18:11:40.629Z,4.13
2022-11-23T18:14:07.233Z,2.50
2022-11-23T18:16:33.697Z,4.45
2022-11-23T18:19:00.101Z,2.80
2022-11-23T18:21:26.546Z,2.35
2022-11-23T18:23:53.162Z,2.50
2022-11-23T18:26:21.895Z,1.90
2022-11-23T18:28:49.103Z,2.47
2022-11-23T18:31:16.384Z,2.25
2022-11-23T18:33:43.209Z,1.98
2022-11-23T18:36:10.559Z,2.22
2022-11-23T18:38:37.854Z,2.05
2022-11-23T18:41:04.338Z,2.42
2022-11-23T18:43:31.196Z,2.80
2022-11-23T18:45:58.180Z,2.17
2022-11-23T18:48:25.387Z,1.95
2022-11-23T18:50:53.952Z,2.53
2022-11-23T18:53:20.439Z,2.53
2022-11-23T18:55:46.955Z,2.58
2022-11-23T18:58:13.340Z,3.70
2022-11-23T19:00:39.953Z,3.80
2022-11-23T19:03:06.548Z,2.67
2022-11-23T19:05:34.417Z,2.30
2022-11-23T19:08:06.243Z,2.47
2022-11-23T19:10:37.826Z,2.28
2022-11-23T19:13:05.965Z,2.65
2022-11-23T19:15:33.122Z,4.22
2022-11-23T19:17:59.786Z,4.80
2022-11-23T19:20:26.595Z,5.15
2022-11-23T19:22:53.050Z,5.50
2022-11-23T19:25:19.572Z,4.93
2022-11-23T19:27:48.678Z,5.05
2022-11-23T19:30:15.477Z,4.90
2022-11-23T19:32:41.872Z,3.25
2022-11-23T19:35:08.326Z,2.78
2022-11-23T19:37:36.054Z,2.38
2022-11-23T19:40:02.779Z,2.70
2022-11-23T19:42:29.161Z,2.08
2022-11-23T19:44:55.504Z,2.63
2022-11-23T19:47:23.038Z,2.35
2022-11-23T19:49:49.557Z,2.70
2022-11-23T19:52:15.906Z,2.85
2022-11-23T19:54:42.231Z,2.55
2022-11-23T19:57:08.589Z,2.53
2022-11-23T19:59:35.340Z,2.90
2022-11-23T20:02:02.197Z,2.88
2022-11-23T20:04:28.939Z,2.42
2022-11-23T20:06:55.358Z,2.65
2022-11-23T20:09:23.354Z,2.53
2022-11-23T20:11:51.477Z,2.80
2022-11-23T20:14:18.584Z,2.40
2022-11-23T20:16:45.084Z,4.93
2022-11-23T20:19:11.654Z,3.22
2022-11-23T20:21:38.422Z,3.25
2022-11-23T20:24:07.403Z,3.35
2022-11-23T20:26:36.115Z,3.13
2022-11-23T20:29:03.834Z,2.80
2022-11-23T20:31:33.392Z,2.92
2022-11-23T20:34:00.018Z,3.22
2022-11-23T20:36:29.695Z,3.70
2022-11-23T20:38:56.572Z,3.63
2022-11-23T20:41:26.334Z,3.78
2022-11-23T20:43:58.117Z,3.78
2022-11-23T20:46:53.659Z,3.97
2022-11-23T20:49:12.124Z,4.45
2022-11-23T20:51:38.734Z,3.55
2022-11-23T20:54:05.085Z,4.13
2022-11-23T20:56:32.382Z,4.93
2022-11-23T20:59:03.978Z,4.18
2022-11-23T21:01:30.593Z,4.13
2022-11-23T21:04:01.241Z,4.65
2022-11-23T21:06:28.364Z,4.55
2022-11-23T21:08:55.042Z,4.35
2022-11-23T21:11:42.716Z,4.03
2022-11-23T21:14:18.230Z,4.00
2022-11-23T21:16:55.747Z,3.72
2022-11-23T21:19:27.485Z,3.67
2022-11-23T21:21:54.780Z,3.88
2022-11-23T21:24:21.339Z,3.55
2022-11-23T21:26:48.142Z,3.85
2022-11-23T21:29:16.145Z,4.50
2022-11-23T21:31:44.396Z,3.72
2022-11-23T21:34:20.737Z,3.90
2022-11-23T21:36:47.645Z,4.28
2022-11-23T21:39:14.115Z,5.00
2022-11-23T21:41:40.847Z,4.60
2022-11-23T21:44:08.500Z,4.88
2022-11-23T21:46:37.019Z,4.72
2022-11-23T21:49:04.405Z,4.88
2022-11-23T21:51:31.402Z,5.40
2022-11-23T21:54:00.795Z,5.05
2022-11-23T21:56:28.300Z,5.50
2022-11-23T21:58:55.093Z,5.70
2022-11-23T22:01:24.189Z,5.50
2022-11-23T22:03:55.719Z,5.97
2022-11-23T22:06:22.697Z,6.13
2022-11-23T22:08:54.172Z,6.38
2022-11-23T22:11:28.932Z,6.85
2022-11-23T22:14:04.692Z,6.70
2022-11-23T22:16:36.380Z,6.55
2022-11-23T22:19:03.474Z,7.05
2022-11-23T22:21:33.929Z,6.22
2022-11-23T22:24:01.083Z,6.35
2022-11-23T22:26:27.826Z,6.88
2022-11-23T22:28:55.208Z,7.43
2022-11-23T22:31:23.577Z,7.63
2022-11-23T22:33:50.395Z,6.80
2022-11-23T22:36:19.000Z,6.80
2022-11-23T22:38:46.288Z,6.50
2022-11-23T22:41:16.371Z,7.07
2022-11-23T22:43:43.520Z,6.57
2022-11-23T22:46:15.751Z,7.07
2022-11-23T22:48:43.402Z,7.03
2022-11-23T22:51:12.601Z,6.57
2022-11-23T22:53:44.459Z,6.93
2022-11-23T22:56:16.259Z,7.05
2022-11-23T22:58:43.666Z,7.00
2022-11-23T23:01:12.372Z,6.38
2022-11-23T23:03:38.943Z,5.93
2022-11-23T23:06:05.837Z,6.78
2022-11-23T23:08:32.952Z,6.07
2022-11-23T23:11:04.453Z,6.35
2022-11-23T23:13:31.823Z,5.75
2022-11-23T23:16:02.647Z,5.70
2022-11-23T23:18:29.296Z,5.82
2022-11-23T23:21:10.576Z,6.07
2022-11-23T23:23:38.201Z,7.22
2022-11-23T23:26:05.390Z,6.00
2022-11-23T23:28:32.117Z,6.47
2022-11-23T23:31:02.487Z,5.78
2022-11-23T23:33:29.694Z,6.20
2022-11-23T23:35:56.583Z,5.70
2022-11-23T23:38:27.326Z,5.50
2022-11-23T23:40:56.651Z,5.90
2022-11-23T23:43:23.250Z,5.80
2022-11-23T23:45:53.661Z,6.35
2022-11-23T23:48:20.447Z,6.93
2022-11-23T23:50:49.040Z,6.97
2022-11-23T23:53:15.534Z,5.85
2022-11-23T23:55:42.090Z,5.75
2022-11-23T23:58:08.446Z,5.63
